sensor_id;sensor_type;location;lat;lon;timestamp;P1;durP1;ratioP1;P2;durP2;ratioP2
71910;SDS011;59783;52.232;5.170;2023-01-15T00:00:33;28.05;;;25.75;;
71910;SDS011;59783;52.232;5.170;2023-01-15T00:02:58;28.27;;;25.97;;
71910;SDS011;59783;52.232;5.170;2023-01-15T00:05:23;27.67;;;25.37;;
71910;SDS011;59783;52.232;5.170;2023-01-15T00:07:49;20.97;;;19.07;;
71910;SDS011;59783;52.232;5.170;2023-01-15T00:10:15;27.33;;;25.08;;
71910;SDS011;59783;52.232;5.170;2023-01-15T00:12:40;29.23;;;26.85;;
71910;SDS011;59783;52.232;5.170;2023-01-15T00:15:05;26.40;;;24.20;;
71910;SDS011;59783;52.232;5.170;2023-01-15T00:17:31;25.55;;;23.42;;
71910;SDS011;59783;52.232;5.170;2023-01-15T00:19:56;27.30;;;25.05;;
71910;SDS011;59783;52.232;5.170;2023-01-15T00:22:21;26.87;;;24.67;;
71910;SDS011;59783;52.232;5.170;2023-01-15T00:24:46;26.43;;;24.23;;
71910;SDS011;59783;52.232;5.170;2023-01-15T00:27:30;25.63;;;23.52;;
71910;SDS011;59783;52.232;5.170;2023-01-15T00:30:06;19.92;;;18.13;;
71910;SDS011;59783;52.232;5.170;2023-01-15T00:32:33;24.67;;;22.58;;
71910;SDS011;59783;52.232;5.170;2023-01-15T00:34:58;24.03;;;22.03;;
71910;SDS011;59783;52.232;5.170;2023-01-15T00:37:23;25.45;;;23.35;;
71910;SDS011;59783;52.232;5.170;2023-01-15T00:39:48;25.17;;;23.07;;
71910;SDS011;59783;52.232;5.170;2023-01-15T00:42:15;23.70;;;21.70;;
71910;SDS011;59783;52.232;5.170;2023-01-15T00:44:41;23.73;;;21.73;;
71910;SDS011;59783;52.232;5.170;2023-01-15T00:47:06;24.40;;;22.40;;
71910;SDS011;59783;52.232;5.170;2023-01-15T00:49:33;24.85;;;22.80;;
71910;SDS011;59783;52.232;5.170;2023-01-15T00:51:58;24.30;;;22.30;;
71910;SDS011;59783;52.232;5.170;2023-01-15T00:54:23;24.43;;;22.43;;
71910;SDS011;59783;52.232;5.170;2023-01-15T00:56:48;24.03;;;22.03;;
71910;SDS011;59783;52.232;5.170;2023-01-15T00:59:14;24.17;;;22.17;;
71910;SDS011;59783;52.232;5.170;2023-01-15T01:01:39;23.65;;;21.75;;
71910;SDS011;59783;52.232;5.170;2023-01-15T01:04:04;24.58;;;22.58;;
71910;SDS011;59783;52.232;5.170;2023-01-15T01:06:30;24.17;;;22.23;;
71910;SDS011;59783;52.232;5.170;2023-01-15T01:08:55;23.20;;;21.30;;
71910;SDS011;59783;52.232;5.170;2023-01-15T01:11:21;23.23;;;21.33;;
71910;SDS011;59783;52.232;5.170;2023-01-15T01:13:48;25.55;;;23.55;;
71910;SDS011;59783;52.232;5.170;2023-01-15T01:16:24;23.13;;;21.23;;
71910;SDS011;59783;52.232;5.170;2023-01-15T01:18:50;23.52;;;21.63;;
71910;SDS011;59783;52.232;5.170;2023-01-15T01:21:16;18.08;;;16.48;;
71910;SDS011;59783;52.232;5.170;2023-01-15T01:23:41;22.98;;;21.08;;
71910;SDS011;59783;52.232;5.170;2023-01-15T01:26:06;23.47;;;21.57;;
71910;SDS011;59783;52.232;5.170;2023-01-15T01:28:32;23.17;;;21.27;;
71910;SDS011;59783;52.232;5.170;2023-01-15T01:30:57;22.58;;;20.73;;
71910;SDS011;59783;52.232;5.170;2023-01-15T01:33:22;22.37;;;20.57;;
71910;SDS011;59783;52.232;5.170;2023-01-15T01:35:48;21.80;;;20.00;;
71910;SDS011;59783;52.232;5.170;2023-01-15T01:38:13;20.98;;;19.27;;
71910;SDS011;59783;52.232;5.170;2023-01-15T01:40:39;22.40;;;20.60;;
71910;SDS011;59783;52.232;5.170;2023-01-15T01:43:07;15.43;;;14.02;;
71910;SDS011;59783;52.232;5.170;2023-01-15T01:45:35;22.48;;;20.67;;
71910;SDS011;59783;52.232;5.170;2023-01-15T01:48:01;21.03;;;19.33;;
71910;SDS011;59783;52.232;5.170;2023-01-15T01:50:28;22.88;;;21.08;;
71910;SDS011;59783;52.232;5.170;2023-01-15T01:52:55;23.75;;;21.85;;
71910;SDS011;59783;52.232;5.170;2023-01-15T01:55:22;22.55;;;20.75;;
71910;SDS011;59783;52.232;5.170;2023-01-15T01:57:48;21.48;;;19.77;;
71910;SDS011;59783;52.232;5.170;2023-01-15T02:00:14;23.05;;;21.25;;
71910;SDS011;59783;52.232;5.170;2023-01-15T02:02:41;22.92;;;21.13;;
71910;SDS011;59783;52.232;5.170;2023-01-15T02:05:07;16.65;;;15.25;;
71910;SDS011;59783;52.232;5.170;2023-01-15T02:07:32;21.30;;;19.60;;
71910;SDS011;59783;52.232;5.170;2023-01-15T02:09:58;21.15;;;19.45;;
71910;SDS011;59783;52.232;5.170;2023-01-15T02:12:27;20.33;;;18.70;;
71910;SDS011;59783;52.232;5.170;2023-01-15T02:15:15;23.05;;;21.25;;
71910;SDS011;59783;52.232;5.170;2023-01-15T02:27:28;20.05;;;18.45;;
71910;SDS011;59783;52.232;5.170;2023-01-15T02:32:40;20.02;;;18.42;;
71910;SDS011;59783;52.232;5.170;2023-01-15T02:35:12;19.90;;;18.30;;
71910;SDS011;59783;52.232;5.170;2023-01-15T02:37:40;20.63;;;19.02;;
71910;SDS011;59783;52.232;5.170;2023-01-15T02:40:09;21.20;;;19.55;;
71910;SDS011;59783;52.232;5.170;2023-01-15T02:42:34;18.88;;;17.38;;
71910;SDS011;59783;52.232;5.170;2023-01-15T02:45:01;19.70;;;18.15;;
71910;SDS011;59783;52.232;5.170;2023-01-15T02:47:28;19.20;;;17.70;;
71910;SDS011;59783;52.232;5.170;2023-01-15T02:49:54;19.88;;;18.30;;
71910;SDS011;59783;52.232;5.170;2023-01-15T02:52:22;18.48;;;16.98;;
71910;SDS011;59783;52.232;5.170;2023-01-15T02:54:52;17.88;;;16.48;;
71910;SDS011;59783;52.232;5.170;2023-01-15T02:57:19;18.92;;;17.42;;
71910;SDS011;59783;52.232;5.170;2023-01-15T02:59:46;18.58;;;17.10;;
71910;SDS011;59783;52.232;5.170;2023-01-15T03:02:19;17.95;;;16.55;;
71910;SDS011;59783;52.232;5.170;2023-01-15T03:04:50;19.42;;;17.92;;
71910;SDS011;59783;52.232;5.170;2023-01-15T03:07:18;19.38;;;17.88;;
71910;SDS011;59783;52.232;5.170;2023-01-15T03:09:46;19.67;;;18.17;;
71910;SDS011;59783;52.232;5.170;2023-01-15T03:12:17;19.35;;;17.85;;
71910;SDS011;59783;52.232;5.170;2023-01-15T03:14:48;20.83;;;19.25;;
71910;SDS011;59783;52.232;5.170;2023-01-15T03:17:19;18.05;;;16.65;;
71910;SDS011;59783;52.232;5.170;2023-01-15T03:20:00;18.52;;;17.13;;
71910;SDS011;59783;52.232;5.170;2023-01-15T03:22:27;18.63;;;17.23;;
71910;SDS011;59783;52.232;5.170;2023-01-15T03:27:19;12.73;;;11.63;;
71910;SDS011;59783;52.232;5.170;2023-01-15T03:29:46;18.58;;;17.17;;
71910;SDS011;59783;52.232;5.170;2023-01-15T03:32:12;17.20;;;15.90;;
71910;SDS011;59783;52.232;5.170;2023-01-15T03:34:45;16.60;;;15.30;;
71910;SDS011;59783;52.232;5.170;2023-01-15T03:37:11;18.40;;;17.00;;
71910;SDS011;59783;52.232;5.170;2023-01-15T03:39:37;17.98;;;16.58;;
71910;SDS011;59783;52.232;5.170;2023-01-15T03:42:11;18.15;;;16.75;;
71910;SDS011;59783;52.232;5.170;2023-01-15T03:44:39;13.82;;;12.68;;
71910;SDS011;59783;52.232;5.170;2023-01-15T03:49:37;17.73;;;16.37;;
71910;SDS011;59783;52.232;5.170;2023-01-15T03:52:05;19.77;;;18.27;;
71910;SDS011;59783;52.232;5.170;2023-01-15T03:54:34;18.23;;;16.83;;
71910;SDS011;59783;52.232;5.170;2023-01-15T03:57:04;17.40;;;16.10;;
71910;SDS011;59783;52.232;5.170;2023-01-15T03:59:32;17.35;;;16.05;;
71910;SDS011;59783;52.232;5.170;2023-01-15T04:01:59;14.18;;;13.02;;
71910;SDS011;59783;52.232;5.170;2023-01-15T04:04:25;18.35;;;16.95;;
71910;SDS011;59783;52.232;5.170;2023-01-15T04:06:51;16.63;;;15.32;;
71910;SDS011;59783;52.232;5.170;2023-01-15T04:09:17;13.63;;;12.52;;
71910;SDS011;59783;52.232;5.170;2023-01-15T04:11:43;18.63;;;17.23;;
71910;SDS011;59783;52.232;5.170;2023-01-15T04:14:08;18.47;;;17.07;;
71910;SDS011;59783;52.232;5.170;2023-01-15T04:16:36;17.83;;;16.42;;
71910;SDS011;59783;52.232;5.170;2023-01-15T04:19:01;18.70;;;17.30;;
71910;SDS011;59783;52.232;5.170;2023-01-15T04:21:27;18.23;;;16.83;;
71910;SDS011;59783;52.232;5.170;2023-01-15T04:23:52;18.77;;;17.38;;
71910;SDS011;59783;52.232;5.170;2023-01-15T04:26:17;19.03;;;17.63;;
71910;SDS011;59783;52.232;5.170;2023-01-15T04:28:42;19.30;;;17.90;;
71910;SDS011;59783;52.232;5.170;2023-01-15T04:31:08;17.70;;;16.40;;
71910;SDS011;59783;52.232;5.170;2023-01-15T04:33:33;17.30;;;16.00;;
71910;SDS011;59783;52.232;5.170;2023-01-15T04:35:59;18.50;;;17.10;;
71910;SDS011;59783;52.232;5.170;2023-01-15T04:38:24;18.55;;;17.15;;
71910;SDS011;59783;52.232;5.170;2023-01-15T04:40:50;18.85;;;17.45;;
71910;SDS011;59783;52.232;5.170;2023-01-15T04:43:34;20.52;;;19.02;;
71910;SDS011;59783;52.232;5.170;2023-01-15T04:46:22;18.30;;;16.90;;
71910;SDS011;59783;52.232;5.170;2023-01-15T04:48:47;17.95;;;16.55;;
71910;SDS011;59783;52.232;5.170;2023-01-15T04:51:12;18.07;;;16.67;;
71910;SDS011;59783;52.232;5.170;2023-01-15T04:53:38;19.63;;;18.13;;
71910;SDS011;59783;52.232;5.170;2023-01-15T04:56:03;16.77;;;15.47;;
71910;SDS011;59783;52.232;5.170;2023-01-15T04:58:29;14.27;;;13.10;;
71910;SDS011;59783;52.232;5.170;2023-01-15T05:00:54;17.57;;;16.23;;
71910;SDS011;59783;52.232;5.170;2023-01-15T05:03:19;19.17;;;17.77;;
71910;SDS011;59783;52.232;5.170;2023-01-15T05:05:44;17.95;;;16.55;;
71910;SDS011;59783;52.232;5.170;2023-01-15T05:08:10;17.70;;;16.38;;
71910;SDS011;59783;52.232;5.170;2023-01-15T05:10:35;16.85;;;15.55;;
71910;SDS011;59783;52.232;5.170;2023-01-15T05:13:00;18.73;;;17.33;;
71910;SDS011;59783;52.232;5.170;2023-01-15T05:15:25;18.57;;;17.17;;
71910;SDS011;59783;52.232;5.170;2023-01-15T05:17:50;18.00;;;16.60;;
71910;SDS011;59783;52.232;5.170;2023-01-15T05:20:16;16.90;;;15.60;;
71910;SDS011;59783;52.232;5.170;2023-01-15T05:22:41;18.15;;;16.75;;
71910;SDS011;59783;52.232;5.170;2023-01-15T05:25:06;17.13;;;15.83;;
71910;SDS011;59783;52.232;5.170;2023-01-15T05:27:32;17.48;;;16.17;;
71910;SDS011;59783;52.232;5.170;2023-01-15T05:29:57;17.90;;;16.52;;
71910;SDS011;59783;52.232;5.170;2023-01-15T05:32:22;16.90;;;15.60;;
71910;SDS011;59783;52.232;5.170;2023-01-15T05:34:47;16.60;;;15.30;;
71910;SDS011;59783;52.232;5.170;2023-01-15T05:37:12;17.20;;;15.90;;
71910;SDS011;59783;52.232;5.170;2023-01-15T05:39:38;17.20;;;15.90;;
71910;SDS011;59783;52.232;5.170;2023-01-15T05:42:03;17.10;;;15.80;;
71910;SDS011;59783;52.232;5.170;2023-01-15T05:44:28;16.63;;;15.33;;
71910;SDS011;59783;52.232;5.170;2023-01-15T05:46:55;17.45;;;16.13;;
71910;SDS011;59783;52.232;5.170;2023-01-15T05:49:21;16.17;;;14.88;;
71910;SDS011;59783;52.232;5.170;2023-01-15T05:51:47;17.13;;;15.82;;
71910;SDS011;59783;52.232;5.170;2023-01-15T05:54:13;17.27;;;15.98;;
71910;SDS011;59783;52.232;5.170;2023-01-15T05:56:39;19.27;;;17.85;;
71910;SDS011;59783;52.232;5.170;2023-01-15T05:59:04;17.48;;;16.17;;
71910;SDS011;59783;52.232;5.170;2023-01-15T06:01:30;18.23;;;16.83;;
71910;SDS011;59783;52.232;5.170;2023-01-15T06:03:59;17.80;;;16.50;;
71910;SDS011;59783;52.232;5.170;2023-01-15T06:06:24;17.17;;;15.88;;
71910;SDS011;59783;52.232;5.170;2023-01-15T06:08:50;17.00;;;15.70;;
71910;SDS011;59783;52.232;5.170;2023-01-15T06:11:15;16.60;;;15.30;;
71910;SDS011;59783;52.232;5.170;2023-01-15T06:13:40;16.50;;;15.20;;
71910;SDS011;59783;52.232;5.170;2023-01-15T06:16:06;17.53;;;16.23;;
71910;SDS011;59783;52.232;5.170;2023-01-15T06:18:31;17.38;;;16.08;;
71910;SDS011;59783;52.232;5.170;2023-01-15T06:21:01;17.80;;;16.48;;
71910;SDS011;59783;52.232;5.170;2023-01-15T06:23:27;17.98;;;16.65;;
71910;SDS011;59783;52.232;5.170;2023-01-15T06:25:52;17.53;;;16.23;;
71910;SDS011;59783;52.232;5.170;2023-01-15T06:28:17;12.77;;;11.77;;
71910;SDS011;59783;52.232;5.170;2023-01-15T06:30:42;17.57;;;16.27;;
71910;SDS011;59783;52.232;5.170;2023-01-15T06:33:07;17.60;;;16.30;;
71910;SDS011;59783;52.232;5.170;2023-01-15T06:35:33;17.60;;;16.30;;
71910;SDS011;59783;52.232;5.170;2023-01-15T06:37:59;16.92;;;15.63;;
71910;SDS011;59783;52.232;5.170;2023-01-15T06:40:24;12.83;;;11.73;;
71910;SDS011;59783;52.232;5.170;2023-01-15T06:42:51;19.20;;;17.80;;
71910;SDS011;59783;52.232;5.170;2023-01-15T06:45:38;16.80;;;15.50;;
71910;SDS011;59783;52.232;5.170;2023-01-15T06:48:23;17.65;;;16.35;;
71910;SDS011;59783;52.232;5.170;2023-01-15T06:50:48;17.40;;;16.10;;
71910;SDS011;59783;52.232;5.170;2023-01-15T06:53:13;13.23;;;12.13;;
71910;SDS011;59783;52.232;5.170;2023-01-15T06:55:39;19.00;;;17.60;;
71910;SDS011;59783;52.232;5.170;2023-01-15T06:58:04;17.25;;;15.95;;
71910;SDS011;59783;52.232;5.170;2023-01-15T07:00:29;17.23;;;15.93;;
71910;SDS011;59783;52.232;5.170;2023-01-15T07:02:54;17.13;;;15.83;;
71910;SDS011;59783;52.232;5.170;2023-01-15T07:05:20;18.87;;;17.47;;
71910;SDS011;59783;52.232;5.170;2023-01-15T07:07:45;17.43;;;16.13;;
71910;SDS011;59783;52.232;5.170;2023-01-15T07:10:10;17.30;;;16.00;;
71910;SDS011;59783;52.232;5.170;2023-01-15T07:12:35;16.67;;;15.38;;
71910;SDS011;59783;52.232;5.170;2023-01-15T07:15:00;16.93;;;15.63;;
71910;SDS011;59783;52.232;5.170;2023-01-15T07:17:26;16.33;;;15.03;;
71910;SDS011;59783;52.232;5.170;2023-01-15T07:19:51;17.90;;;16.60;;
71910;SDS011;59783;52.232;5.170;2023-01-15T07:22:16;17.60;;;16.30;;
71910;SDS011;59783;52.232;5.170;2023-01-15T07:24:41;17.37;;;16.07;;
71910;SDS011;59783;52.232;5.170;2023-01-15T07:27:07;17.93;;;16.63;;
71910;SDS011;59783;52.232;5.170;2023-01-15T07:29:32;17.67;;;16.37;;
71910;SDS011;59783;52.232;5.170;2023-01-15T07:31:57;17.43;;;16.13;;
71910;SDS011;59783;52.232;5.170;2023-01-15T07:34:22;18.20;;;16.90;;
71910;SDS011;59783;52.232;5.170;2023-01-15T07:36:47;18.00;;;16.63;;
71910;SDS011;59783;52.232;5.170;2023-01-15T07:39:13;17.40;;;16.10;;
71910;SDS011;59783;52.232;5.170;2023-01-15T07:41:38;20.13;;;18.63;;
71910;SDS011;59783;52.232;5.170;2023-01-15T07:44:22;18.35;;;16.95;;
71910;SDS011;59783;52.232;5.170;2023-01-15T07:47:13;17.98;;;16.63;;
71910;SDS011;59783;52.232;5.170;2023-01-15T07:49:58;19.40;;;18.00;;
71910;SDS011;59783;52.232;5.170;2023-01-15T07:52:23;18.95;;;17.55;;
71910;SDS011;59783;52.232;5.170;2023-01-15T07:54:49;17.97;;;16.67;;
71910;SDS011;59783;52.232;5.170;2023-01-15T07:57:15;17.38;;;16.08;;
71910;SDS011;59783;52.232;5.170;2023-01-15T07:59:41;18.67;;;17.30;;
71910;SDS011;59783;52.232;5.170;2023-01-15T08:02:07;13.63;;;12.53;;
71910;SDS011;59783;52.232;5.170;2023-01-15T08:04:32;18.87;;;17.47;;
71910;SDS011;59783;52.232;5.170;2023-01-15T08:06:58;17.93;;;16.53;;
71910;SDS011;59783;52.232;5.170;2023-01-15T08:09:23;18.23;;;16.83;;
71910;SDS011;59783;52.232;5.170;2023-01-15T08:11:49;21.13;;;19.52;;
71910;SDS011;59783;52.232;5.170;2023-01-15T08:14:33;19.90;;;18.40;;
71910;SDS011;59783;52.232;5.170;2023-01-15T08:17:17;16.15;;;14.85;;
71910;SDS011;59783;52.232;5.170;2023-01-15T08:19:42;21.67;;;20.07;;
71910;SDS011;59783;52.232;5.170;2023-01-15T08:22:09;20.23;;;18.70;;
71910;SDS011;59783;52.232;5.170;2023-01-15T08:24:34;20.15;;;18.65;;
71910;SDS011;59783;52.232;5.170;2023-01-15T08:26:59;21.53;;;19.93;;
71910;SDS011;59783;52.232;5.170;2023-01-15T08:29:25;21.27;;;19.67;;
71910;SDS011;59783;52.232;5.170;2023-01-15T08:31:51;22.92;;;21.33;;
71910;SDS011;59783;52.232;5.170;2023-01-15T08:34:16;18.93;;;17.53;;
71910;SDS011;59783;52.232;5.170;2023-01-15T08:36:43;22.70;;;21.10;;
71910;SDS011;59783;52.232;5.170;2023-01-15T08:39:08;22.33;;;20.73;;
71910;SDS011;59783;52.232;5.170;2023-01-15T08:41:33;20.35;;;18.85;;
71910;SDS011;59783;52.232;5.170;2023-01-15T08:43:58;21.80;;;20.20;;
71910;SDS011;59783;52.232;5.170;2023-01-15T08:46:24;22.37;;;20.77;;
71910;SDS011;59783;52.232;5.170;2023-01-15T08:48:49;22.80;;;21.10;;
71910;SDS011;59783;52.232;5.170;2023-01-15T08:51:14;23.00;;;21.30;;
71910;SDS011;59783;52.232;5.170;2023-01-15T08:53:39;22.38;;;20.67;;
71910;SDS011;59783;52.232;5.170;2023-01-15T08:56:10;25.33;;;23.50;;
71910;SDS011;59783;52.232;5.170;2023-01-15T08:58:35;21.73;;;20.13;;
71910;SDS011;59783;52.232;5.170;2023-01-15T09:01:04;21.63;;;20.03;;
71910;SDS011;59783;52.232;5.170;2023-01-15T09:03:30;21.42;;;19.83;;
71910;SDS011;59783;52.232;5.170;2023-01-15T09:05:58;22.30;;;20.70;;
71910;SDS011;59783;52.232;5.170;2023-01-15T09:08:24;22.25;;;20.65;;
71910;SDS011;59783;52.232;5.170;2023-01-15T09:10:49;19.35;;;17.95;;
71910;SDS011;59783;52.232;5.170;2023-01-15T09:13:14;21.43;;;19.93;;
71910;SDS011;59783;52.232;5.170;2023-01-15T09:15:40;23.87;;;22.20;;
71910;SDS011;59783;52.232;5.170;2023-01-15T09:18:05;20.53;;;19.03;;
71910;SDS011;59783;52.232;5.170;2023-01-15T09:20:30;19.33;;;17.93;;
71910;SDS011;59783;52.232;5.170;2023-01-15T09:22:55;19.67;;;18.27;;
71910;SDS011;59783;52.232;5.170;2023-01-15T09:25:21;19.25;;;17.85;;
71910;SDS011;59783;52.232;5.170;2023-01-15T09:27:48;14.75;;;13.63;;
71910;SDS011;59783;52.232;5.170;2023-01-15T09:30:15;18.85;;;17.45;;
71910;SDS011;59783;52.232;5.170;2023-01-15T09:35:07;19.00;;;17.60;;
71910;SDS011;59783;52.232;5.170;2023-01-15T09:37:32;18.58;;;17.25;;
71910;SDS011;59783;52.232;5.170;2023-01-15T09:39:57;18.13;;;16.83;;
71910;SDS011;59783;52.232;5.170;2023-01-15T09:42:28;19.23;;;17.83;;
71910;SDS011;59783;52.232;5.170;2023-01-15T09:50:17;18.30;;;17.00;;
71910;SDS011;59783;52.232;5.170;2023-01-15T09:52:49;17.23;;;15.98;;
71910;SDS011;59783;52.232;5.170;2023-01-15T09:55:19;17.08;;;15.85;;
71910;SDS011;59783;52.232;5.170;2023-01-15T09:57:48;18.95;;;17.65;;
71910;SDS011;59783;52.232;5.170;2023-01-15T10:00:18;16.98;;;15.77;;
71910;SDS011;59783;52.232;5.170;2023-01-15T10:05:23;18.70;;;17.35;;
71910;SDS011;59783;52.232;5.170;2023-01-15T10:07:53;22.63;;;20.98;;
71910;SDS011;59783;52.232;5.170;2023-01-15T10:10:21;35.30;;;32.78;;
71910;SDS011;59783;52.232;5.170;2023-01-15T10:12:48;50.65;;;46.83;;
71910;SDS011;59783;52.232;5.170;2023-01-15T10:15:21;60.03;;;55.80;;
71910;SDS011;59783;52.232;5.170;2023-01-15T10:17:48;60.42;;;55.92;;
71910;SDS011;59783;52.232;5.170;2023-01-15T10:20:15;87.65;;;81.97;;
71910;SDS011;59783;52.232;5.170;2023-01-15T10:22:43;67.25;;;62.60;;
71910;SDS011;59783;52.232;5.170;2023-01-15T10:25:15;87.07;;;81.47;;
71910;SDS011;59783;52.232;5.170;2023-01-15T10:27:43;92.53;;;86.80;;
71910;SDS011;59783;52.232;5.170;2023-01-15T10:30:25;95.80;;;90.00;;
71910;SDS011;59783;52.232;5.170;2023-01-15T10:32:54;87.35;;;81.93;;
71910;SDS011;59783;52.232;5.170;2023-01-15T10:37:46;81.75;;;76.63;;
71910;SDS011;59783;52.232;5.170;2023-01-15T10:42:49;73.70;;;68.87;;
71910;SDS011;59783;52.232;5.170;2023-01-15T10:45:24;55.65;;;51.75;;
71910;SDS011;59783;52.232;5.170;2023-01-15T10:47:52;90.40;;;85.00;;
71910;SDS011;59783;52.232;5.170;2023-01-15T10:50:21;83.88;;;78.72;;
71910;SDS011;59783;52.232;5.170;2023-01-15T10:55:41;78.50;;;73.80;;
71910;SDS011;59783;52.232;5.170;2023-01-15T10:58:11;78.53;;;73.82;;
71910;SDS011;59783;52.232;5.170;2023-01-15T11:00:37;61.75;;;57.85;;
71910;SDS011;59783;52.232;5.170;2023-01-15T11:03:04;73.70;;;69.28;;
71910;SDS011;59783;52.232;5.170;2023-01-15T11:05:32;65.75;;;61.65;;
71910;SDS011;59783;52.232;5.170;2023-01-15T11:07:58;60.60;;;56.80;;
71910;SDS011;59783;52.232;5.170;2023-01-15T11:10:24;55.55;;;51.90;;
71910;SDS011;59783;52.232;5.170;2023-01-15T11:15:33;39.42;;;36.72;;
71910;SDS011;59783;52.232;5.170;2023-01-15T11:18:20;51.03;;;47.63;;
71910;SDS011;59783;52.232;5.170;2023-01-15T11:21:12;48.30;;;45.13;;
71910;SDS011;59783;52.232;5.170;2023-01-15T11:23:39;31.17;;;28.95;;
71910;SDS011;59783;52.232;5.170;2023-01-15T11:26:04;30.65;;;28.42;;
71910;SDS011;59783;52.232;5.170;2023-01-15T11:28:37;28.73;;;26.63;;
71910;SDS011;59783;52.232;5.170;2023-01-15T11:31:04;30.48;;;28.35;;
71910;SDS011;59783;52.232;5.170;2023-01-15T11:33:30;29.60;;;27.48;;
71910;SDS011;59783;52.232;5.170;2023-01-15T11:35:57;31.85;;;29.55;;
71910;SDS011;59783;52.232;5.170;2023-01-15T11:38:23;32.38;;;30.05;;
71910;SDS011;59783;52.232;5.170;2023-01-15T11:40:50;32.72;;;30.33;;
71910;SDS011;59783;52.232;5.170;2023-01-15T11:43:22;38.60;;;35.85;;
71910;SDS011;59783;52.232;5.170;2023-01-15T11:49:10;36.38;;;33.78;;
71910;SDS011;59783;52.232;5.170;2023-01-15T11:51:54;31.48;;;29.17;;
71910;SDS011;59783;52.232;5.170;2023-01-15T11:56:47;33.20;;;30.77;;
71910;SDS011;59783;52.232;5.170;2023-01-15T11:59:13;26.88;;;24.77;;
71910;SDS011;59783;52.232;5.170;2023-01-15T12:04:28;34.80;;;32.30;;
71910;SDS011;59783;52.232;5.170;2023-01-15T12:06:54;34.50;;;32.00;;
71910;SDS011;59783;52.232;5.170;2023-01-15T12:19:24;107.35;;;100.95;;
71910;SDS011;59783;52.232;5.170;2023-01-15T12:24:50;151.50;;;142.40;;
71910;SDS011;59783;52.232;5.170;2023-01-15T12:27:26;139.68;;;131.20;;
71910;SDS011;59783;52.232;5.170;2023-01-15T12:30:02;136.35;;;128.15;;
71910;SDS011;59783;52.232;5.170;2023-01-15T12:32:32;143.23;;;134.68;;
71910;SDS011;59783;52.232;5.170;2023-01-15T12:35:15;308.50;;;291.02;;
71910;SDS011;59783;52.232;5.170;2023-01-15T12:37:47;273.98;;;256.70;;
71910;SDS011;59783;52.232;5.170;2023-01-15T12:42:38;272.60;;;255.23;;
71910;SDS011;59783;52.232;5.170;2023-01-15T12:45:40;324.58;;;305.02;;
71910;SDS011;59783;52.232;5.170;2023-01-15T12:50:53;338.48;;;318.42;;
71910;SDS011;59783;52.232;5.170;2023-01-15T12:53:24;340.67;;;320.08;;
71910;SDS011;59783;52.232;5.170;2023-01-15T13:00:50;327.73;;;309.00;;
71910;SDS011;59783;52.232;5.170;2023-01-15T13:03:24;328.10;;;309.70;;
71910;SDS011;59783;52.232;5.170;2023-01-15T13:05:52;330.40;;;312.05;;
71910;SDS011;59783;52.232;5.170;2023-01-15T13:08:23;338.20;;;319.67;;
71910;SDS011;59783;52.232;5.170;2023-01-15T13:10:49;285.25;;;268.40;;
71910;SDS011;59783;52.232;5.170;2023-01-15T13:13:28;331.90;;;313.75;;
71910;SDS011;59783;52.232;5.170;2023-01-15T13:16:02;318.58;;;300.73;;
71910;SDS011;59783;52.232;5.170;2023-01-15T13:18:31;274.27;;;258.23;;
71910;SDS011;59783;52.232;5.170;2023-01-15T13:21:00;317.92;;;301.13;;
71910;SDS011;59783;52.232;5.170;2023-01-15T13:33:53;75.13;;;70.13;;
71910;SDS011;59783;52.232;5.170;2023-01-15T13:36:26;63.53;;;59.15;;
71910;SDS011;59783;52.232;5.170;2023-01-15T13:38:54;42.75;;;39.55;;
71910;SDS011;59783;52.232;5.170;2023-01-15T13:41:22;65.82;;;61.25;;
71910;SDS011;59783;52.232;5.170;2023-01-15T13:44:14;85.78;;;80.28;;
71910;SDS011;59783;52.232;5.170;2023-01-15T13:46:40;65.82;;;61.35;;
71910;SDS011;59783;52.232;5.170;2023-01-15T13:49:13;74.97;;;69.97;;
71910;SDS011;59783;52.232;5.170;2023-01-15T13:51:40;56.42;;;52.55;;
71910;SDS011;59783;52.232;5.170;2023-01-15T13:54:14;49.45;;;45.92;;
71910;SDS011;59783;52.232;5.170;2023-01-15T13:56:40;35.50;;;32.80;;
71910;SDS011;59783;52.232;5.170;2023-01-15T13:59:24;48.65;;;45.25;;
71910;SDS011;59783;52.232;5.170;2023-01-15T14:01:50;45.13;;;42.03;;
71910;SDS011;59783;52.232;5.170;2023-01-15T14:04:15;43.67;;;40.63;;
71910;SDS011;59783;52.232;5.170;2023-01-15T14:06:41;42.60;;;39.60;;
71910;SDS011;59783;52.232;5.170;2023-01-15T14:09:11;42.70;;;39.70;;
71910;SDS011;59783;52.232;5.170;2023-01-15T14:16:51;45.08;;;41.83;;
71910;SDS011;59783;52.232;5.170;2023-01-15T14:19:25;60.47;;;55.97;;
71910;SDS011;59783;52.232;5.170;2023-01-15T14:22:02;89.68;;;83.57;;
71910;SDS011;59783;52.232;5.170;2023-01-15T14:24:40;94.57;;;88.22;;
71910;SDS011;59783;52.232;5.170;2023-01-15T14:27:20;83.07;;;77.32;;
71910;SDS011;59783;52.232;5.170;2023-01-15T14:35:10;80.63;;;75.15;;
71910;SDS011;59783;52.232;5.170;2023-01-15T14:37:51;69.68;;;64.85;;
71910;SDS011;59783;52.232;5.170;2023-01-15T14:40:28;67.38;;;62.67;;
71910;SDS011;59783;52.232;5.170;2023-01-15T14:42:54;67.88;;;63.10;;
71910;SDS011;59783;52.232;5.170;2023-01-15T14:45:32;60.47;;;56.17;;
71910;SDS011;59783;52.232;5.170;2023-01-15T14:48:04;47.10;;;43.50;;
71910;SDS011;59783;52.232;5.170;2023-01-15T14:50:39;64.45;;;59.97;;
71910;SDS011;59783;52.232;5.170;2023-01-15T14:55:30;51.63;;;47.83;;
71910;SDS011;59783;52.232;5.170;2023-01-15T14:57:57;56.78;;;52.78;;
71910;SDS011;59783;52.232;5.170;2023-01-15T15:00:25;37.58;;;34.70;;
71910;SDS011;59783;52.232;5.170;2023-01-15T15:02:51;48.10;;;44.70;;
71910;SDS011;59783;52.232;5.170;2023-01-15T15:05:18;46.80;;;43.50;;
71910;SDS011;59783;52.232;5.170;2023-01-15T15:07:48;47.38;;;44.05;;
71910;SDS011;59783;52.232;5.170;2023-01-15T15:10:20;35.75;;;32.95;;
71910;SDS011;59783;52.232;5.170;2023-01-15T15:15:18;33.58;;;30.98;;
71910;SDS011;59783;52.232;5.170;2023-01-15T15:17:54;30.95;;;28.55;;
71910;SDS011;59783;52.232;5.170;2023-01-15T15:20:23;33.50;;;31.00;;
71910;SDS011;59783;52.232;5.170;2023-01-15T15:22:52;30.50;;;28.23;;
71910;SDS011;59783;52.232;5.170;2023-01-15T15:25:21;32.35;;;29.92;;
71910;SDS011;59783;52.232;5.170;2023-01-15T15:27:47;34.38;;;31.77;;
71910;SDS011;59783;52.232;5.170;2023-01-15T15:30:13;33.57;;;31.07;;
71910;SDS011;59783;52.232;5.170;2023-01-15T15:32:40;32.90;;;30.50;;
71910;SDS011;59783;52.232;5.170;2023-01-15T15:35:26;43.28;;;40.17;;
71910;SDS011;59783;52.232;5.170;2023-01-15T15:37:52;44.22;;;41.10;;
71910;SDS011;59783;52.232;5.170;2023-01-15T15:40:19;135.32;;;126.97;;
71910;SDS011;59783;52.232;5.170;2023-01-15T15:42:47;147.13;;;138.13;;
71910;SDS011;59783;52.232;5.170;2023-01-15T15:45:32;236.18;;;222.73;;
71910;SDS011;59783;52.232;5.170;2023-01-15T15:48:17;238.70;;;225.27;;
71910;SDS011;59783;52.232;5.170;2023-01-15T15:51:02;214.70;;;201.25;;
71910;SDS011;59783;52.232;5.170;2023-01-15T15:53:28;250.63;;;235.80;;
71910;SDS011;59783;52.232;5.170;2023-01-15T15:55:53;243.75;;;228.70;;
71910;SDS011;59783;52.232;5.170;2023-01-15T15:58:29;255.43;;;240.93;;
71910;SDS011;59783;52.232;5.170;2023-01-15T16:00:55;266.85;;;251.43;;